sensor_id;sensor_type;location;lat;lon;timestamp;temperature;humidity
49222;DHT22;35047;37.588;-122.048;2023-04-30T00:00:34;31.50;42.90
49222;DHT22;35047;37.588;-122.048;2023-04-30T00:03:01;31.40;42.80
49222;DHT22;35047;37.588;-122.048;2023-04-30T00:05:29;31.20;43.30
49222;DHT22;35047;37.588;-122.048;2023-04-30T00:07:56;31.10;43.50
49222;DHT22;35047;37.588;-122.048;2023-04-30T00:10:22;31.00;43.20
49222;DHT22;35047;37.588;-122.048;2023-04-30T00:12:49;30.90;43.40
49222;DHT22;35047;37.588;-122.048;2023-04-30T00:15:15;30.70;43.30
49222;DHT22;35047;37.588;-122.048;2023-04-30T00:17:42;30.70;43.70
49222;DHT22;35047;37.588;-122.048;2023-04-30T00:20:09;30.70;44.10
49222;DHT22;35047;37.588;-122.048;2023-04-30T00:22:35;30.60;43.70
49222;DHT22;35047;37.588;-122.048;2023-04-30T00:25:01;30.40;44.30
49222;DHT22;35047;37.588;-122.048;2023-04-30T00:27:28;30.30;44.70
49222;DHT22;35047;37.588;-122.048;2023-04-30T00:29:56;30.20;45.10
49222;DHT22;35047;37.588;-122.048;2023-04-30T00:32:23;30.20;45.10
49222;DHT22;35047;37.588;-122.048;2023-04-30T00:34:49;30.10;45.10
49222;DHT22;35047;37.588;-122.048;2023-04-30T00:37:16;30.10;45.30
49222;DHT22;35047;37.588;-122.048;2023-04-30T00:39:42;30.00;45.20
49222;DHT22;35047;37.588;-122.048;2023-04-30T00:42:09;30.00;45.40
49222;DHT22;35047;37.588;-122.048;2023-04-30T00:44:35;30.00;45.10
49222;DHT22;35047;37.588;-122.048;2023-04-30T00:47:02;29.80;45.30
49222;DHT22;35047;37.588;-122.048;2023-04-30T00:49:29;29.60;45.80
49222;DHT22;35047;37.588;-122.048;2023-04-30T00:51:55;29.50;45.70
49222;DHT22;35047;37.588;-122.048;2023-04-30T00:54:22;29.60;45.60
49222;DHT22;35047;37.588;-122.048;2023-04-30T00:56:49;29.40;45.40
49222;DHT22;35047;37.588;-122.048;2023-04-30T00:59:17;29.30;46.00
49222;DHT22;35047;37.588;-122.048;2023-04-30T01:01:43;29.20;45.70
49222;DHT22;35047;37.588;-122.048;2023-04-30T01:04:10;29.20;45.90
49222;DHT22;35047;37.588;-122.048;2023-04-30T01:06:36;29.20;46.00
49222;DHT22;35047;37.588;-122.048;2023-04-30T01:09:03;29.10;46.00
49222;DHT22;35047;37.588;-122.048;2023-04-30T01:12:07;29.10;45.50
49222;DHT22;35047;37.588;-122.048;2023-04-30T01:15:24;28.80;45.60
49222;DHT22;35047;37.588;-122.048;2023-04-30T01:20:11;28.70;45.80
49222;DHT22;35047;37.588;-122.048;2023-04-30T01:30:31;28.10;46.70
49222;DHT22;35047;37.588;-122.048;2023-04-30T01:32:58;28.00;46.50
49222;DHT22;35047;37.588;-122.048;2023-04-30T01:40:55;27.60;46.40
49222;DHT22;35047;37.588;-122.048;2023-04-30T01:48:51;27.10;47.80
49222;DHT22;35047;37.588;-122.048;2023-04-30T01:51:40;26.80;48.10
49222;DHT22;35047;37.588;-122.048;2023-04-30T01:54:27;26.60;48.70
49222;DHT22;35047;37.588;-122.048;2023-04-30T01:57:04;26.20;49.10
49222;DHT22;35047;37.588;-122.048;2023-04-30T01:59:35;26.00;49.80
49222;DHT22;35047;37.588;-122.048;2023-04-30T02:02:03;25.70;50.30
49222;DHT22;35047;37.588;-122.048;2023-04-30T02:04:29;25.30;50.90
49222;DHT22;35047;37.588;-122.048;2023-04-30T02:06:56;25.20;51.50
49222;DHT22;35047;37.588;-122.048;2023-04-30T02:09:24;25.00;52.00
49222;DHT22;35047;37.588;-122.048;2023-04-30T02:11:50;24.70;51.70
49222;DHT22;35047;37.588;-122.048;2023-04-30T02:14:17;24.60;52.10
49222;DHT22;35047;37.588;-122.048;2023-04-30T02:16:43;24.40;52.30
49222;DHT22;35047;37.588;-122.048;2023-04-30T02:19:10;24.30;53.00
49222;DHT22;35047;37.588;-122.048;2023-04-30T02:21:38;24.10;53.70
49222;DHT22;35047;37.588;-122.048;2023-04-30T02:24:05;24.00;54.00
49222;DHT22;35047;37.588;-122.048;2023-04-30T02:26:31;23.90;54.50
49222;DHT22;35047;37.588;-122.048;2023-04-30T02:28:58;23.80;54.90
49222;DHT22;35047;37.588;-122.048;2023-04-30T02:31:24;23.70;55.30
49222;DHT22;35047;37.588;-122.048;2023-04-30T02:33:50;23.50;55.70
49222;DHT22;35047;37.588;-122.048;2023-04-30T02:36:17;23.40;56.30
49222;DHT22;35047;37.588;-122.048;2023-04-30T02:38:44;23.30;56.50
49222;DHT22;35047;37.588;-122.048;2023-04-30T02:41:10;23.20;56.70
49222;DHT22;35047;37.588;-122.048;2023-04-30T02:43:37;23.20;57.10
49222;DHT22;35047;37.588;-122.048;2023-04-30T02:46:03;23.10;57.10
49222;DHT22;35047;37.588;-122.048;2023-04-30T02:48:29;23.10;57.30
49222;DHT22;35047;37.588;-122.048;2023-04-30T02:50:56;23.00;57.70
49222;DHT22;35047;37.588;-122.048;2023-04-30T02:53:22;22.90;58.00
49222;DHT22;35047;37.588;-122.048;2023-04-30T02:55:49;22.80;58.20
49222;DHT22;35047;37.588;-122.048;2023-04-30T02:58:16;22.70;58.40
49222;DHT22;35047;37.588;-122.048;2023-04-30T03:00:42;22.60;58.50
49222;DHT22;35047;37.588;-122.048;2023-04-30T03:03:09;22.50;58.60
49222;DHT22;35047;37.588;-122.048;2023-04-30T03:05:35;22.40;58.70
49222;DHT22;35047;37.588;-122.048;2023-04-30T03:08:02;22.30;58.90
49222;DHT22;35047;37.588;-122.048;2023-04-30T03:10:29;22.30;59.50
49222;DHT22;35047;37.588;-122.048;2023-04-30T03:12:55;22.10;59.80
49222;DHT22;35047;37.588;-122.048;2023-04-30T03:15:22;22.00;60.00
49222;DHT22;35047;37.588;-122.048;2023-04-30T03:17:49;22.00;60.40
49222;DHT22;35047;37.588;-122.048;2023-04-30T03:20:15;21.90;61.50
49222;DHT22;35047;37.588;-122.048;2023-04-30T03:22:42;21.70;61.30
49222;DHT22;35047;37.588;-122.048;2023-04-30T03:25:11;21.70;61.60
49222;DHT22;35047;37.588;-122.048;2023-04-30T03:27:38;21.60;61.70
49222;DHT22;35047;37.588;-122.048;2023-04-30T03:30:05;21.60;62.30
49222;DHT22;35047;37.588;-122.048;2023-04-30T03:32:32;21.40;62.60
49222;DHT22;35047;37.588;-122.048;2023-04-30T03:34:58;21.40;62.80
49222;DHT22;35047;37.588;-122.048;2023-04-30T03:37:25;21.40;62.80
49222;DHT22;35047;37.588;-122.048;2023-04-30T03:39:54;21.20;63.00
49222;DHT22;35047;37.588;-122.048;2023-04-30T03:42:20;21.30;63.10
49222;DHT22;35047;37.588;-122.048;2023-04-30T03:44:47;21.20;63.30
49222;DHT22;35047;37.588;-122.048;2023-04-30T03:47:13;21.20;63.30
49222;DHT22;35047;37.588;-122.048;2023-04-30T03:49:40;21.10;63.40
49222;DHT22;35047;37.588;-122.048;2023-04-30T03:52:06;21.00;63.40
49222;DHT22;35047;37.588;-122.048;2023-04-30T03:54:32;20.90;63.70
49222;DHT22;35047;37.588;-122.048;2023-04-30T03:57:00;20.80;63.90
49222;DHT22;35047;37.588;-122.048;2023-04-30T03:59:33;20.80;64.10
49222;DHT22;35047;37.588;-122.048;2023-04-30T04:02:00;20.80;64.20
49222;DHT22;35047;37.588;-122.048;2023-04-30T04:04:27;20.80;64.50
49222;DHT22;35047;37.588;-122.048;2023-04-30T04:06:54;20.70;64.80
49222;DHT22;35047;37.588;-122.048;2023-04-30T04:09:20;20.60;65.10
49222;DHT22;35047;37.588;-122.048;2023-04-30T04:11:47;20.60;65.40
49222;DHT22;35047;37.588;-122.048;2023-04-30T04:14:14;20.50;65.80
49222;DHT22;35047;37.588;-122.048;2023-04-30T04:16:41;20.50;66.10
49222;DHT22;35047;37.588;-122.048;2023-04-30T04:19:08;20.40;66.60
49222;DHT22;35047;37.588;-122.048;2023-04-30T04:21:35;20.30;66.80
49222;DHT22;35047;37.588;-122.048;2023-04-30T04:24:01;20.20;67.20
49222;DHT22;35047;37.588;-122.048;2023-04-30T04:26:34;20.20;67.20
49222;DHT22;35047;37.588;-122.048;2023-04-30T04:29:01;20.10;67.40
49222;DHT22;35047;37.588;-122.048;2023-04-30T04:31:29;20.10;67.70
49222;DHT22;35047;37.588;-122.048;2023-04-30T04:33:58;20.00;67.80
49222;DHT22;35047;37.588;-122.048;2023-04-30T04:36:26;20.00;68.10
49222;DHT22;35047;37.588;-122.048;2023-04-30T04:38:57;20.00;68.30
49222;DHT22;35047;37.588;-122.048;2023-04-30T04:41:27;19.90;68.30
49222;DHT22;35047;37.588;-122.048;2023-04-30T04:43:54;19.90;68.20
49222;DHT22;35047;37.588;-122.048;2023-04-30T04:46:22;19.80;68.60
49222;DHT22;35047;37.588;-122.048;2023-04-30T04:48:49;19.80;68.50
49222;DHT22;35047;37.588;-122.048;2023-04-30T04:51:16;19.80;68.70
49222;DHT22;35047;37.588;-122.048;2023-04-30T04:53:42;19.70;68.70
49222;DHT22;35047;37.588;-122.048;2023-04-30T04:56:08;19.70;69.30
49222;DHT22;35047;37.588;-122.048;2023-04-30T04:58:36;19.70;68.90
49222;DHT22;35047;37.588;-122.048;2023-04-30T05:01:02;19.60;69.00
49222;DHT22;35047;37.588;-122.048;2023-04-30T05:03:31;19.60;69.20
49222;DHT22;35047;37.588;-122.048;2023-04-30T05:05:58;19.50;69.30
49222;DHT22;35047;37.588;-122.048;2023-04-30T05:08:24;19.40;69.50
49222;DHT22;35047;37.588;-122.048;2023-04-30T05:10:51;19.50;69.70
49222;DHT22;35047;37.588;-122.048;2023-04-30T05:13:17;19.40;69.60
49222;DHT22;35047;37.588;-122.048;2023-04-30T05:15:44;19.40;69.30
49222;DHT22;35047;37.588;-122.048;2023-04-30T05:18:10;19.30;69.00
49222;DHT22;35047;37.588;-122.048;2023-04-30T05:20:37;19.30;68.60
49222;DHT22;35047;37.588;-122.048;2023-04-30T05:23:03;19.30;68.40
49222;DHT22;35047;37.588;-122.048;2023-04-30T05:25:30;19.30;68.30
49222;DHT22;35047;37.588;-122.048;2023-04-30T05:27:56;19.20;68.30
49222;DHT22;35047;37.588;-122.048;2023-04-30T05:30:23;19.20;68.30
49222;DHT22;35047;37.588;-122.048;2023-04-30T05:32:50;19.20;68.50
49222;DHT22;35047;37.588;-122.048;2023-04-30T05:35:18;19.10;68.40
49222;DHT22;35047;37.588;-122.048;2023-04-30T05:37:45;19.10;68.40
49222;DHT22;35047;37.588;-122.048;2023-04-30T05:40:12;19.10;68.90
49222;DHT22;35047;37.588;-122.048;2023-04-30T05:42:39;19.10;68.20
49222;DHT22;35047;37.588;-122.048;2023-04-30T05:45:06;19.10;68.20
49222;DHT22;35047;37.588;-122.048;2023-04-30T05:47:32;19.00;68.30
49222;DHT22;35047;37.588;-122.048;2023-04-30T05:49:59;19.00;68.50
49222;DHT22;35047;37.588;-122.048;2023-04-30T05:52:25;18.90;68.50
49222;DHT22;35047;37.588;-122.048;2023-04-30T05:54:52;18.90;68.80
49222;DHT22;35047;37.588;-122.048;2023-04-30T05:57:18;18.90;68.90
49222;DHT22;35047;37.588;-122.048;2023-04-30T05:59:46;18.90;68.80
49222;DHT22;35047;37.588;-122.048;2023-04-30T06:02:12;18.80;68.90
49222;DHT22;35047;37.588;-122.048;2023-04-30T06:04:39;18.80;69.00
49222;DHT22;35047;37.588;-122.048;2023-04-30T06:07:06;18.80;69.50
49222;DHT22;35047;37.588;-122.048;2023-04-30T06:09:32;18.90;69.80
49222;DHT22;35047;37.588;-122.048;2023-04-30T06:11:59;18.80;69.50
49222;DHT22;35047;37.588;-122.048;2023-04-30T06:14:25;18.80;69.40
49222;DHT22;35047;37.588;-122.048;2023-04-30T06:16:52;18.80;69.40
49222;DHT22;35047;37.588;-122.048;2023-04-30T06:19:18;18.80;69.30
49222;DHT22;35047;37.588;-122.048;2023-04-30T06:21:45;18.80;69.10
49222;DHT22;35047;37.588;-122.048;2023-04-30T06:24:12;18.90;68.80
49222;DHT22;35047;37.588;-122.048;2023-04-30T06:26:38;18.90;68.90
49222;DHT22;35047;37.588;-122.048;2023-04-30T06:29:05;18.80;69.30
49222;DHT22;35047;37.588;-122.048;2023-04-30T06:31:31;18.80;69.50
49222;DHT22;35047;37.588;-122.048;2023-04-30T06:33:58;18.70;69.80
49222;DHT22;35047;37.588;-122.048;2023-04-30T06:36:24;18.70;69.90
49222;DHT22;35047;37.588;-122.048;2023-04-30T06:38:51;18.70;70.00
49222;DHT22;35047;37.588;-122.048;2023-04-30T06:41:17;18.60;70.20
49222;DHT22;35047;37.588;-122.048;2023-04-30T06:43:44;18.60;70.40
49222;DHT22;35047;37.588;-122.048;2023-04-30T06:46:10;18.50;70.40
49222;DHT22;35047;37.588;-122.048;2023-04-30T06:48:37;18.50;70.50
49222;DHT22;35047;37.588;-122.048;2023-04-30T06:51:03;18.50;70.70
49222;DHT22;35047;37.588;-122.048;2023-04-30T06:53:31;18.50;70.80
49222;DHT22;35047;37.588;-122.048;2023-04-30T06:55:57;18.50;71.10
49222;DHT22;35047;37.588;-122.048;2023-04-30T06:58:24;18.50;71.00
49222;DHT22;35047;37.588;-122.048;2023-04-30T07:00:50;18.60;71.20
49222;DHT22;35047;37.588;-122.048;2023-04-30T07:03:17;18.50;70.90
49222;DHT22;35047;37.588;-122.048;2023-04-30T07:05:44;18.60;71.20
49222;DHT22;35047;37.588;-122.048;2023-04-30T07:08:10;18.60;70.90
49222;DHT22;35047;37.588;-122.048;2023-04-30T07:10:37;18.70;71.10
49222;DHT22;35047;37.588;-122.048;2023-04-30T07:13:04;18.70;71.00
49222;DHT22;35047;37.588;-122.048;2023-04-30T07:15:30;18.70;70.60
49222;DHT22;35047;37.588;-122.048;2023-04-30T07:17:57;18.70;70.90
49222;DHT22;35047;37.588;-122.048;2023-04-30T07:20:23;18.50;70.40
49222;DHT22;35047;37.588;-122.048;2023-04-30T07:22:50;18.50;70.50
49222;DHT22;35047;37.588;-122.048;2023-04-30T07:25:16;18.50;70.70
49222;DHT22;35047;37.588;-122.048;2023-04-30T07:27:43;18.60;70.80
49222;DHT22;35047;37.588;-122.048;2023-04-30T07:30:09;18.60;70.60
49222;DHT22;35047;37.588;-122.048;2023-04-30T07:32:37;18.60;70.60
49222;DHT22;35047;37.588;-122.048;2023-04-30T07:35:06;18.60;70.80
49222;DHT22;35047;37.588;-122.048;2023-04-30T07:37:32;18.60;70.70
49222;DHT22;35047;37.588;-122.048;2023-04-30T07:39:59;18.60;70.60
49222;DHT22;35047;37.588;-122.048;2023-04-30T07:42:25;18.70;70.40
49222;DHT22;35047;37.588;-122.048;2023-04-30T07:44:52;18.70;71.20
49222;DHT22;35047;37.588;-122.048;2023-04-30T07:47:18;18.70;70.70
49222;DHT22;35047;37.588;-122.048;2023-04-30T07:49:46;18.60;70.40
49222;DHT22;35047;37.588;-122.048;2023-04-30T07:52:13;18.70;70.90
49222;DHT22;35047;37.588;-122.048;2023-04-30T07:54:40;18.80;71.00
49222;DHT22;35047;37.588;-122.048;2023-04-30T07:57:07;18.70;70.70
49222;DHT22;35047;37.588;-122.048;2023-04-30T07:59:33;18.70;70.40
49222;DHT22;35047;37.588;-122.048;2023-04-30T08:02:00;18.70;70.40
49222;DHT22;35047;37.588;-122.048;2023-04-30T08:04:27;18.80;70.60
49222;DHT22;35047;37.588;-122.048;2023-04-30T08:06:53;18.70;71.30
49222;DHT22;35047;37.588;-122.048;2023-04-30T08:09:20;18.70;70.80
49222;DHT22;35047;37.588;-122.048;2023-04-30T08:11:46;18.70;70.60
49222;DHT22;35047;37.588;-122.048;2023-04-30T08:14:13;18.70;70.50
49222;DHT22;35047;37.588;-122.048;2023-04-30T08:16:39;18.80;70.10
49222;DHT22;35047;37.588;-122.048;2023-04-30T08:19:06;18.80;70.10
49222;DHT22;35047;37.588;-122.048;2023-04-30T08:21:32;18.70;70.00
49222;DHT22;35047;37.588;-122.048;2023-04-30T08:23:59;18.70;70.20
49222;DHT22;35047;37.588;-122.048;2023-04-30T08:26:27;18.70;70.50
49222;DHT22;35047;37.588;-122.048;2023-04-30T08:28:53;18.70;70.20
49222;DHT22;35047;37.588;-122.048;2023-04-30T08:31:19;18.70;70.50
49222;DHT22;35047;37.588;-122.048;2023-04-30T08:33:46;18.70;70.40
49222;DHT22;35047;37.588;-122.048;2023-04-30T08:36:12;18.70;70.70
49222;DHT22;35047;37.588;-122.048;2023-04-30T08:38:39;18.70;70.50
49222;DHT22;35047;37.588;-122.048;2023-04-30T08:41:11;18.70;70.30
49222;DHT22;35047;37.588;-122.048;2023-04-30T08:43:39;18.70;70.00
49222;DHT22;35047;37.588;-122.048;2023-04-30T08:46:07;18.70;70.00
49222;DHT22;35047;37.588;-122.048;2023-04-30T08:48:33;18.60;70.10
49222;DHT22;35047;37.588;-122.048;2023-04-30T08:51:01;18.60;70.40
49222;DHT22;35047;37.588;-122.048;2023-04-30T08:53:34;18.70;70.30
49222;DHT22;35047;37.588;-122.048;2023-04-30T08:56:02;18.60;70.40
49222;DHT22;35047;37.588;-122.048;2023-04-30T08:58:29;18.60;70.70
49222;DHT22;35047;37.588;-122.048;2023-04-30T09:00:58;18.60;70.60
49222;DHT22;35047;37.588;-122.048;2023-04-30T09:03:25;18.60;70.80
49222;DHT22;35047;37.588;-122.048;2023-04-30T09:05:54;18.60;71.20
49222;DHT22;35047;37.588;-122.048;2023-04-30T09:08:41;18.60;71.30
49222;DHT22;35047;37.588;-122.048;2023-04-30T09:11:42;18.60;71.30
49222;DHT22;35047;37.588;-122.048;2023-04-30T09:14:09;18.60;71.20
49222;DHT22;35047;37.588;-122.048;2023-04-30T09:16:47;18.60;71.20
49222;DHT22;35047;37.588;-122.048;2023-04-30T09:19:25;18.60;71.20
49222;DHT22;35047;37.588;-122.048;2023-04-30T09:21:52;18.60;71.00
49222;DHT22;35047;37.588;-122.048;2023-04-30T09:24:19;18.60;70.80
49222;DHT22;35047;37.588;-122.048;2023-04-30T09:26:46;18.60;70.30
49222;DHT22;35047;37.588;-122.048;2023-04-30T09:29:13;18.60;70.20
49222;DHT22;35047;37.588;-122.048;2023-04-30T09:31:47;18.60;70.30
49222;DHT22;35047;37.588;-122.048;2023-04-30T09:34:13;18.60;70.20
49222;DHT22;35047;37.588;-122.048;2023-04-30T09:36:53;18.50;70.50
49222;DHT22;35047;37.588;-122.048;2023-04-30T09:39:20;18.50;70.80
49222;DHT22;35047;37.588;-122.048;2023-04-30T09:41:46;18.40;71.00
49222;DHT22;35047;37.588;-122.048;2023-04-30T09:44:31;18.40;71.20
49222;DHT22;35047;37.588;-122.048;2023-04-30T09:47:02;18.40;71.40
49222;DHT22;35047;37.588;-122.048;2023-04-30T09:49:28;18.40;71.40
49222;DHT22;35047;37.588;-122.048;2023-04-30T09:51:56;18.40;71.60
49222;DHT22;35047;37.588;-122.048;2023-04-30T09:54:29;18.40;71.50
49222;DHT22;35047;37.588;-122.048;2023-04-30T09:56:59;18.30;71.00
49222;DHT22;35047;37.588;-122.048;2023-04-30T09:59:31;18.20;71.10
49222;DHT22;35047;37.588;-122.048;2023-04-30T10:02:02;18.10;71.20
49222;DHT22;35047;37.588;-122.048;2023-04-30T10:04:37;18.10;71.50
49222;DHT22;35047;37.588;-122.048;2023-04-30T10:07:24;18.10;71.80
49222;DHT22;35047;37.588;-122.048;2023-04-30T10:10:03;18.00;72.00
49222;DHT22;35047;37.588;-122.048;2023-04-30T10:15:16;18.00;72.30
49222;DHT22;35047;37.588;-122.048;2023-04-30T10:17:56;18.00;72.50
49222;DHT22;35047;37.588;-122.048;2023-04-30T10:20:25;18.00;72.20
49222;DHT22;35047;37.588;-122.048;2023-04-30T10:22:53;17.90;72.60
49222;DHT22;35047;37.588;-122.048;2023-04-30T10:25:19;17.80;72.40
49222;DHT22;35047;37.588;-122.048;2023-04-30T10:27:48;17.80;72.70
49222;DHT22;35047;37.588;-122.048;2023-04-30T10:30:15;17.80;72.90
49222;DHT22;35047;37.588;-122.048;2023-04-30T10:36:02;17.70;73.40
49222;DHT22;35047;37.588;-122.048;2023-04-30T10:38:31;17.70;73.60
49222;DHT22;35047;37.588;-122.048;2023-04-30T10:41:01;17.70;73.50
49222;DHT22;35047;37.588;-122.048;2023-04-30T10:43:31;17.60;73.90
49222;DHT22;35047;37.588;-122.048;2023-04-30T10:46:00;17.50;74.70
49222;DHT22;35047;37.588;-122.048;2023-04-30T10:48:27;17.60;74.70
49222;DHT22;35047;37.588;-122.048;2023-04-30T10:50:57;17.60;74.50
49222;DHT22;35047;37.588;-122.048;2023-04-30T10:53:24;17.50;74.60
49222;DHT22;35047;37.588;-122.048;2023-04-30T10:56:00;17.60;74.50
49222;DHT22;35047;37.588;-122.048;2023-04-30T10:58:35;17.50;74.80
49222;DHT22;35047;37.588;-122.048;2023-04-30T11:01:09;17.50;74.90
49222;DHT22;35047;37.588;-122.048;2023-04-30T11:03:40;17.50;75.20
49222;DHT22;35047;37.588;-122.048;2023-04-30T11:06:14;17.50;75.20
49222;DHT22;35047;37.588;-122.048;2023-04-30T11:08:46;17.40;75.40
49222;DHT22;35047;37.588;-122.048;2023-04-30T11:11:20;17.40;75.40
49222;DHT22;35047;37.588;-122.048;2023-04-30T11:13:58;17.30;75.50
49222;DHT22;35047;37.588;-122.048;2023-04-30T11:16:34;17.30;75.70
49222;DHT22;35047;37.588;-122.048;2023-04-30T11:19:12;17.30;76.00
49222;DHT22;35047;37.588;-122.048;2023-04-30T11:27:32;17.40;76.30
49222;DHT22;35047;37.588;-122.048;2023-04-30T11:30:00;17.30;76.20
49222;DHT22;35047;37.588;-122.048;2023-04-30T11:32:35;17.30;76.70
49222;DHT22;35047;37.588;-122.048;2023-04-30T11:35:03;17.30;76.30
49222;DHT22;35047;37.588;-122.048;2023-04-30T11:37:38;17.30;76.50
49222;DHT22;35047;37.588;-122.048;2023-04-30T11:40:07;17.30;76.50
49222;DHT22;35047;37.588;-122.048;2023-04-30T11:42:37;17.20;76.40
49222;DHT22;35047;37.588;-122.048;2023-04-30T11:45:13;17.20;76.80
49222;DHT22;35047;37.588;-122.048;2023-04-30T11:47:47;17.20;77.10
49222;DHT22;35047;37.588;-122.048;2023-04-30T11:50:16;17.20;76.90
49222;DHT22;35047;37.588;-122.048;2023-04-30T11:52:49;17.20;76.90
49222;DHT22;35047;37.588;-122.048;2023-04-30T11:55:18;17.20;76.90
49222;DHT22;35047;37.588;-122.048;2023-04-30T11:57:46;17.10;76.90
49222;DHT22;35047;37.588;-122.048;2023-04-30T12:00:18;17.10;77.20
49222;DHT22;35047;37.588;-122.048;2023-04-30T12:02:47;17.10;77.30
49222;DHT22;35047;37.588;-122.048;2023-04-30T12:05:24;17.00;77.00
49222;DHT22;35047;37.588;-122.048;2023-04-30T12:07:58;16.90;77.00
49222;DHT22;35047;37.588;-122.048;2023-04-30T12:10:25;17.00;77.50
49222;DHT22;35047;37.588;-122.048;2023-04-30T12:12:52;17.00;77.70
49222;DHT22;35047;37.588;-122.048;2023-04-30T12:15:21;16.90;77.80
49222;DHT22;35047;37.588;-122.048;2023-04-30T12:17:52;16.80;78.30
49222;DHT22;35047;37.588;-122.048;2023-04-30T12:20:20;16.90;78.60
49222;DHT22;35047;37.588;-122.048;2023-04-30T12:22:52;16.80;78.90
49222;DHT22;35047;37.588;-122.048;2023-04-30T12:25:20;16.70;79.30
49222;DHT22;35047;37.588;-122.048;2023-04-30T12:27:49;16.70;79.60
49222;DHT22;35047;37.588;-122.048;2023-04-30T12:30:24;16.80;79.40
49222;DHT22;35047;37.588;-122.048;2023-04-30T12:32:57;16.80;79.40
49222;DHT22;35047;37.588;-122.048;2023-04-30T12:35:26;16.80;80.10
49222;DHT22;35047;37.588;-122.048;2023-04-30T12:38:04;16.70;79.70
49222;DHT22;35047;37.588;-122.048;2023-04-30T12:40:31;16.80;79.70
49222;DHT22;35047;37.588;-122.048;2023-04-30T12:43:05;16.80;80.00
49222;DHT22;35047;37.588;-122.048;2023-04-30T12:45:46;16.80;79.40
49222;DHT22;35047;37.588;-122.048;2023-04-30T12:48:14;16.80;79.80
49222;DHT22;35047;37.588;-122.048;2023-04-30T12:50:41;16.70;80.10
49222;DHT22;35047;37.588;-122.048;2023-04-30T12:53:08;16.80;80.20
49222;DHT22;35047;37.588;-122.048;2023-04-30T12:55:34;16.80;80.10
49222;DHT22;35047;37.588;-122.048;2023-04-30T12:58:09;16.90;80.10
49222;DHT22;35047;37.588;-122.048;2023-04-30T13:00:47;16.80;80.50
49222;DHT22;35047;37.588;-122.048;2023-04-30T13:03:16;16.80;80.90
49222;DHT22;35047;37.588;-122.048;2023-04-30T13:05:49;16.90;80.80
49222;DHT22;35047;37.588;-122.048;2023-04-30T13:08:17;16.90;80.50
49222;DHT22;35047;37.588;-122.048;2023-04-30T13:10:44;16.90;80.80
49222;DHT22;35047;37.588;-122.048;2023-04-30T13:13:13;16.80;80.80
49222;DHT22;35047;37.588;-122.048;2023-04-30T13:15:39;16.90;80.40
49222;DHT22;35047;37.588;-122.048;2023-04-30T13:18:07;16.90;80.10
49222;DHT22;35047;37.588;-122.048;2023-04-30T13:20:38;16.80;79.70
49222;DHT22;35047;37.588;-122.048;2023-04-30T13:23:07;16.60;79.30
49222;DHT22;35047;37.588;-122.048;2023-04-30T13:25:35;16.70;79.30
49222;DHT22;35047;37.588;-122.048;2023-04-30T13:28:02;16.70;79.30
49222;DHT22;35047;37.588;-122.048;2023-04-30T13:30:30;16.80;79.80
49222;DHT22;35047;37.588;-122.048;2023-04-30T13:32:56;16.90;79.40
49222;DHT22;35047;37.588;-122.048;2023-04-30T13:35:23;16.90;79.40
49222;DHT22;35047;37.588;-122.048;2023-04-30T13:37:50;16.60;80.00
49222;DHT22;35047;37.588;-122.048;2023-04-30T13:40:22;16.70;80.80
49222;DHT22;35047;37.588;-122.048;2023-04-30T13:42:49;16.80;81.10
49222;DHT22;35047;37.588;-122.048;2023-04-30T13:45:15;16.50;80.10
49222;DHT22;35047;37.588;-122.048;2023-04-30T13:47:42;16.70;82.30
49222;DHT22;35047;37.588;-122.048;2023-04-30T13:50:08;16.80;81.80
49222;DHT22;35047;37.588;-122.048;2023-04-30T13:52:35;16.90;81.60
49222;DHT22;35047;37.588;-122.048;2023-04-30T13:55:01;16.80;80.50
49222;DHT22;35047;37.588;-122.048;2023-04-30T13:57:30;16.90;82.00
49222;DHT22;35047;37.588;-122.048;2023-04-30T14:00:00;17.00;81.80
49222;DHT22;35047;37.588;-122.048;2023-04-30T14:02:27;17.10;81.70
49222;DHT22;35047;37.588;-122.048;2023-04-30T14:04:54;17.10;82.00
49222;DHT22;35047;37.588;-122.048;2023-04-30T14:07:20;17.20;82.60
49222;DHT22;35047;37.588;-122.048;2023-04-30T14:09:47;17.00;81.90
49222;DHT22;35047;37.588;-122.048;2023-04-30T14:12:13;17.00;82.00
49222;DHT22;35047;37.588;-122.048;2023-04-30T14:14:40;17.20;83.40
49222;DHT22;35047;37.588;-122.048;2023-04-30T14:17:06;17.30;83.10
49222;DHT22;35047;37.588;-122.048;2023-04-30T14:19:33;17.20;82.20
49222;DHT22;35047;37.588;-122.048;2023-04-30T14:22:01;17.00;83.10
49222;DHT22;35047;37.588;-122.048;2023-04-30T14:24:27;17.10;83.00
49222;DHT22;35047;37.588;-122.048;2023-04-30T14:26:53;17.10;82.70
49222;DHT22;35047;37.588;-122.048;2023-04-30T14:29:20;17.20;83.30
49222;DHT22;35047;37.588;-122.048;2023-04-30T14:31:46;17.30;82.60
49222;DHT22;35047;37.588;-122.048;2023-04-30T14:34:13;17.30;83.10
49222;DHT22;35047;37.588;-122.048;2023-04-30T14:36:40;16.90;82.60
49222;DHT22;35047;37.588;-122.048;2023-04-30T14:39:06;17.10;83.80
49222;DHT22;35047;37.588;-122.048;2023-04-30T14:41:36;17.20;83.70
49222;DHT22;35047;37.588;-122.048;2023-04-30T14:44:03;17.20;83.30
49222;DHT22;35047;37.588;-122.048;2023-04-30T14:46:31;17.30;82.70
49222;DHT22;35047;37.588;-122.048;2023-04-30T14:48:58;17.40;82.60
49222;DHT22;35047;37.588;-122.048;2023-04-30T14:51:25;17.40;82.30
49222;DHT22;35047;37.588;-122.048;2023-04-30T14:53:53;17.40;82.20
49222;DHT22;35047;37.588;-122.048;2023-04-30T14:56:20;17.50;82.40
49222;DHT22;35047;37.588;-122.048;2023-04-30T14:58:46;17.50;82.20
49222;DHT22;35047;37.588;-122.048;2023-04-30T15:01:13;17.50;82.80
49222;DHT22;35047;37.588;-122.048;2023-04-30T15:03:40;17.60;81.90
49222;DHT22;35047;37.588;-122.048;2023-04-30T15:06:07;17.60;81.60
49222;DHT22;35047;37.588;-122.048;2023-04-30T15:08:34;17.60;81.80
49222;DHT22;35047;37.588;-122.048;2023-04-30T15:11:01;17.60;80.90
49222;DHT22;35047;37.588;-122.048;2023-04-30T15:13:28;17.50;81.60
49222;DHT22;35047;37.588;-122.048;2023-04-30T15:15:54;17.50;81.30
49222;DHT22;35047;37.588;-122.048;2023-04-30T15:18:21;17.50;80.50
49222;DHT22;35047;37.588;-122.048;2023-04-30T15:20:48;17.40;81.90
49222;DHT22;35047;37.588;-122.048;2023-04-30T15:23:15;17.40;81.50
49222;DHT22;35047;37.588;-122.048;2023-04-30T15:25:41;17.30;82.80
49222;DHT22;35047;37.588;-122.048;2023-04-30T15:28:09;17.40;82.30